sensor_id;sensor_type;location;lat;lon;timestamp;pressure;altitude;pressure_sealevel;temperature;humidity
54948;BME280;41113;41.882;12.530;2023-02-17T00:00:07;102666.09;;;7.69;85.03
54948;BME280;41113;41.882;12.530;2023-02-17T00:02:34;102668.63;;;7.72;84.68
54948;BME280;41113;41.882;12.530;2023-02-17T00:05:00;102663.28;;;7.72;84.86
54948;BME280;41113;41.882;12.530;2023-02-17T00:07:25;102677.59;;;7.71;84.70
54948;BME280;41113;41.882;12.530;2023-02-17T00:09:58;102670.38;;;7.73;84.81
54948;BME280;41113;41.882;12.530;2023-02-17T00:12:24;102671.47;;;7.69;84.81
54948;BME280;41113;41.882;12.530;2023-02-17T00:14:50;102666.81;;;7.54;86.40
54948;BME280;41113;41.882;12.530;2023-02-17T00:17:16;102668.75;;;7.51;86.56
54948;BME280;41113;41.882;12.530;2023-02-17T00:19:41;102676.72;;;7.52;86.29
54948;BME280;41113;41.882;12.530;2023-02-17T00:22:07;102670.28;;;7.56;86.25
54948;BME280;41113;41.882;12.530;2023-02-17T00:24:35;102669.94;;;7.64;85.78
54948;BME280;41113;41.882;12.530;2023-02-17T00:27:01;102668.06;;;7.66;85.37
54948;BME280;41113;41.882;12.530;2023-02-17T00:29:27;102665.16;;;7.70;85.42
54948;BME280;41113;41.882;12.530;2023-02-17T00:31:53;102667.19;;;7.65;85.37
54948;BME280;41113;41.882;12.530;2023-02-17T00:34:18;102661.84;;;7.65;86.10
54948;BME280;41113;41.882;12.530;2023-02-17T00:36:44;102661.84;;;7.65;85.55
54948;BME280;41113;41.882;12.530;2023-02-17T00:39:14;102666.75;;;7.74;85.21
54948;BME280;41113;41.882;12.530;2023-02-17T00:41:40;102658.59;;;7.77;85.30
54948;BME280;41113;41.882;12.530;2023-02-17T00:44:06;102662.69;;;7.86;85.13
54948;BME280;41113;41.882;12.530;2023-02-17T00:46:31;102664.34;;;7.89;84.37
54948;BME280;41113;41.882;12.530;2023-02-17T00:48:57;102659.56;;;7.95;84.36
54948;BME280;41113;41.882;12.530;2023-02-17T00:51:23;102653.50;;;7.92;84.87
54948;BME280;41113;41.882;12.530;2023-02-17T00:53:49;102651.25;;;7.83;84.57
54948;BME280;41113;41.882;12.530;2023-02-17T00:56:15;102659.88;;;7.89;84.83
54948;BME280;41113;41.882;12.530;2023-02-17T00:58:41;102653.44;;;7.93;84.51
54948;BME280;41113;41.882;12.530;2023-02-17T01:01:07;102652.78;;;8.07;84.23
54948;BME280;41113;41.882;12.530;2023-02-17T01:03:33;102643.66;;;8.11;83.51
54948;BME280;41113;41.882;12.530;2023-02-17T01:05:58;102647.16;;;8.13;83.37
54948;BME280;41113;41.882;12.530;2023-02-17T01:08:24;102648.50;;;8.03;83.92
54948;BME280;41113;41.882;12.530;2023-02-17T01:10:50;102647.84;;;7.98;84.13
54948;BME280;41113;41.882;12.530;2023-02-17T01:13:16;102646.63;;;8.05;83.72
54948;BME280;41113;41.882;12.530;2023-02-17T01:15:46;102645.38;;;8.12;83.76
54948;BME280;41113;41.882;12.530;2023-02-17T01:18:12;102641.81;;;8.13;83.56
54948;BME280;41113;41.882;12.530;2023-02-17T01:20:39;102638.44;;;8.08;83.94
54948;BME280;41113;41.882;12.530;2023-02-17T01:23:05;102643.66;;;7.92;84.34
54948;BME280;41113;41.882;12.530;2023-02-17T01:25:35;102639.19;;;7.93;84.26
54948;BME280;41113;41.882;12.530;2023-02-17T01:28:01;102634.28;;;7.84;85.07
54948;BME280;41113;41.882;12.530;2023-02-17T01:30:26;102637.59;;;7.89;84.41
54948;BME280;41113;41.882;12.530;2023-02-17T01:32:51;102628.47;;;7.93;84.61
54948;BME280;41113;41.882;12.530;2023-02-17T01:35:17;102628.03;;;8.02;84.27
54948;BME280;41113;41.882;12.530;2023-02-17T01:37:43;102628.03;;;8.02;83.99
54948;BME280;41113;41.882;12.530;2023-02-17T01:40:10;102618.94;;;8.06;84.07
54948;BME280;41113;41.882;12.530;2023-02-17T01:42:35;102616.78;;;7.95;84.30
54948;BME280;41113;41.882;12.530;2023-02-17T01:47:53;102606.44;;;7.88;84.48
54948;BME280;41113;41.882;12.530;2023-02-17T01:53:22;102593.06;;;7.88;85.00
54948;BME280;41113;41.882;12.530;2023-02-17T01:55:49;102600.94;;;7.91;84.76
54948;BME280;41113;41.882;12.530;2023-02-17T01:58:19;102591.53;;;8.01;84.44
54948;BME280;41113;41.882;12.530;2023-02-17T02:00:45;102594.53;;;8.12;83.82
54948;BME280;41113;41.882;12.530;2023-02-17T02:03:13;102584.22;;;8.04;83.87
54948;BME280;41113;41.882;12.530;2023-02-17T02:05:40;102587.84;;;7.85;84.86
54948;BME280;41113;41.882;12.530;2023-02-17T02:08:07;102583.63;;;7.79;84.97
54948;BME280;41113;41.882;12.530;2023-02-17T02:10:32;102583.63;;;7.79;85.48
54948;BME280;41113;41.882;12.530;2023-02-17T02:12:58;102584.94;;;7.70;85.71
54948;BME280;41113;41.882;12.530;2023-02-17T02:15:28;102584.94;;;7.70;85.76
54948;BME280;41113;41.882;12.530;2023-02-17T02:20:45;102587.69;;;7.69;86.01
54948;BME280;41113;41.882;12.530;2023-02-17T02:34:32;102580.91;;;8.18;83.45
54948;BME280;41113;41.882;12.530;2023-02-17T02:37:14;102584.22;;;8.23;83.10
54948;BME280;41113;41.882;12.530;2023-02-17T02:39:44;102593.75;;;8.10;83.04
54948;BME280;41113;41.882;12.530;2023-02-17T02:42:14;102594.66;;;7.92;83.81
54948;BME280;41113;41.882;12.530;2023-02-17T02:44:40;102584.09;;;7.89;84.77
54948;BME280;41113;41.882;12.530;2023-02-17T02:49:54;102584.09;;;7.89;84.27
54948;BME280;41113;41.882;12.530;2023-02-17T02:52:33;102585.22;;;8.02;84.10
54948;BME280;41113;41.882;12.530;2023-02-17T02:55:30;102591.38;;;8.04;83.53
54948;BME280;41113;41.882;12.530;2023-02-17T02:58:17;102589.34;;;8.09;83.64
54948;BME280;41113;41.882;12.530;2023-02-17T03:00:59;102588.69;;;8.04;83.56
54948;BME280;41113;41.882;12.530;2023-02-17T03:08:46;102594.91;;;8.04;83.46
54948;BME280;41113;41.882;12.530;2023-02-17T03:11:15;102587.56;;;7.91;83.84
54948;BME280;41113;41.882;12.530;2023-02-17T03:14:11;102591.03;;;7.93;83.59
54948;BME280;41113;41.882;12.530;2023-02-17T03:16:38;102597.41;;;7.90;83.60
54948;BME280;41113;41.882;12.530;2023-02-17T03:19:04;102596.53;;;7.90;83.57
54948;BME280;41113;41.882;12.530;2023-02-17T03:22:00;102593.56;;;7.96;83.61
54948;BME280;41113;41.882;12.530;2023-02-17T03:24:23;102593.75;;;7.72;83.84
54948;BME280;41113;41.882;12.530;2023-02-17T03:26:49;102605.03;;;7.60;84.99
54948;BME280;41113;41.882;12.530;2023-02-17T03:29:14;102596.50;;;7.52;85.77
54948;BME280;41113;41.882;12.530;2023-02-17T03:31:40;102589.59;;;7.46;85.82
54948;BME280;41113;41.882;12.530;2023-02-17T03:34:06;102588.06;;;7.41;86.47
54948;BME280;41113;41.882;12.530;2023-02-17T03:36:32;102581.88;;;7.40;87.01
54948;BME280;41113;41.882;12.530;2023-02-17T03:38:57;102585.47;;;7.39;87.09
54948;BME280;41113;41.882;12.530;2023-02-17T03:41:23;102583.88;;;7.35;86.78
54948;BME280;41113;41.882;12.530;2023-02-17T03:43:49;102590.97;;;7.36;86.81
54948;BME280;41113;41.882;12.530;2023-02-17T03:46:16;102591.69;;;7.40;86.45
54948;BME280;41113;41.882;12.530;2023-02-17T03:48:42;102586.34;;;7.40;86.78
54948;BME280;41113;41.882;12.530;2023-02-17T03:51:14;102586.63;;;7.34;87.56
54948;BME280;41113;41.882;12.530;2023-02-17T03:53:41;102588.34;;;7.35;87.42
54948;BME280;41113;41.882;12.530;2023-02-17T03:56:07;102593.69;;;7.35;87.64
54948;BME280;41113;41.882;12.530;2023-02-17T03:58:32;102593.69;;;7.35;87.64
54948;BME280;41113;41.882;12.530;2023-02-17T04:00:58;102590.09;;;7.36;87.54
54948;BME280;41113;41.882;12.530;2023-02-17T04:03:24;102597.31;;;7.34;87.62
54948;BME280;41113;41.882;12.530;2023-02-17T04:05:50;102590.38;;;7.30;87.59
54948;BME280;41113;41.882;12.530;2023-02-17T04:08:15;102599.19;;;7.32;88.18
54948;BME280;41113;41.882;12.530;2023-02-17T04:10:40;102597.31;;;7.34;88.11
54948;BME280;41113;41.882;12.530;2023-02-17T04:13:06;102606.41;;;7.30;88.20
54948;BME280;41113;41.882;12.530;2023-02-17T04:15:31;102604.81;;;7.26;88.89
54948;BME280;41113;41.882;12.530;2023-02-17T04:17:57;102601.22;;;7.27;88.61
54948;BME280;41113;41.882;12.530;2023-02-17T04:20:23;102594.72;;;7.32;88.46
54948;BME280;41113;41.882;12.530;2023-02-17T04:22:49;102599.84;;;7.37;87.97
54948;BME280;41113;41.882;12.530;2023-02-17T04:25:14;102598.78;;;7.41;88.01
54948;BME280;41113;41.882;12.530;2023-02-17T04:27:40;102602.38;;;7.40;88.07
54948;BME280;41113;41.882;12.530;2023-02-17T04:30:05;102591.47;;;7.44;87.72
54948;BME280;41113;41.882;12.530;2023-02-17T04:32:31;102595.56;;;7.53;87.31
54948;BME280;41113;41.882;12.530;2023-02-17T04:34:56;102588.34;;;7.55;87.01
54948;BME280;41113;41.882;12.530;2023-02-17T04:37:22;102595.81;;;7.47;87.16
54948;BME280;41113;41.882;12.530;2023-02-17T04:39:47;102598.63;;;7.44;87.67
54948;BME280;41113;41.882;12.530;2023-02-17T04:42:13;102599.84;;;7.37;87.97
54948;BME280;41113;41.882;12.530;2023-02-17T04:44:38;102602.66;;;7.34;87.85
54948;BME280;41113;41.882;12.530;2023-02-17T04:47:03;102598.25;;;7.33;87.53
54948;BME280;41113;41.882;12.530;2023-02-17T04:49:29;102600.00;;;7.34;88.05
54948;BME280;41113;41.882;12.530;2023-02-17T04:51:54;102597.09;;;7.38;87.56
54948;BME280;41113;41.882;12.530;2023-02-17T04:54:20;102600.38;;;7.45;87.10
54948;BME280;41113;41.882;12.530;2023-02-17T04:56:47;102603.84;;;7.47;87.17
54948;BME280;41113;41.882;12.530;2023-02-17T04:59:12;102598.38;;;7.50;87.04
54948;BME280;41113;41.882;12.530;2023-02-17T05:01:38;102605.59;;;7.48;87.26
54948;BME280;41113;41.882;12.530;2023-02-17T05:04:03;102598.38;;;7.50;87.60
54948;BME280;41113;41.882;12.530;2023-02-17T05:06:29;102596.56;;;7.51;87.33
54948;BME280;41113;41.882;12.530;2023-02-17T05:08:54;102592.16;;;7.49;87.40
54948;BME280;41113;41.882;12.530;2023-02-17T05:11:19;102593.28;;;7.44;87.58
54948;BME280;41113;41.882;12.530;2023-02-17T05:13:45;102603.72;;;7.50;87.15
54948;BME280;41113;41.882;12.530;2023-02-17T05:16:10;102601.31;;;7.44;87.10
54948;BME280;41113;41.882;12.530;2023-02-17T05:18:36;102594.06;;;7.46;86.86
54948;BME280;41113;41.882;12.530;2023-02-17T05:21:02;102599.44;;;7.46;87.11
54948;BME280;41113;41.882;12.530;2023-02-17T05:23:28;102602.09;;;7.46;86.85
54948;BME280;41113;41.882;12.530;2023-02-17T05:25:53;102595.03;;;7.45;86.73
54948;BME280;41113;41.882;12.530;2023-02-17T05:28:18;102590.81;;;7.39;86.92
54948;BME280;41113;41.882;12.530;2023-02-17T05:30:47;102604.25;;;7.38;87.13
54948;BME280;41113;41.882;12.530;2023-02-17T05:33:13;102598.13;;;7.36;87.24
54948;BME280;41113;41.882;12.530;2023-02-17T05:35:38;102598.13;;;7.36;87.77
54948;BME280;41113;41.882;12.530;2023-02-17T05:38:04;102600.94;;;7.33;87.82
54948;BME280;41113;41.882;12.530;2023-02-17T05:40:29;102594.84;;;7.29;88.16
54948;BME280;41113;41.882;12.530;2023-02-17T05:42:55;102594.91;;;7.28;88.25
54948;BME280;41113;41.882;12.530;2023-02-17T05:45:20;102595.88;;;7.27;88.19
54948;BME280;41113;41.882;12.530;2023-02-17T05:47:46;102606.56;;;7.27;88.71
54948;BME280;41113;41.882;12.530;2023-02-17T05:50:11;102601.88;;;7.32;88.33
54948;BME280;41113;41.882;12.530;2023-02-17T05:52:36;102612.63;;;7.30;88.38
54948;BME280;41113;41.882;12.530;2023-02-17T05:55:02;102616.22;;;7.29;88.39
54948;BME280;41113;41.882;12.530;2023-02-17T05:57:28;102607.13;;;7.33;88.33
54948;BME280;41113;41.882;12.530;2023-02-17T05:59:54;102606.00;;;7.39;88.01
54948;BME280;41113;41.882;12.530;2023-02-17T06:02:20;102611.34;;;7.39;87.93
54948;BME280;41113;41.882;12.530;2023-02-17T06:04:45;102617.47;;;7.41;87.54
54948;BME280;41113;41.882;12.530;2023-02-17T06:07:10;102614.81;;;7.41;87.30
54948;BME280;41113;41.882;12.530;2023-02-17T06:09:36;102612.69;;;7.49;87.23
54948;BME280;41113;41.882;12.530;2023-02-17T06:12:01;102620.69;;;7.49;87.19
54948;BME280;41113;41.882;12.530;2023-02-17T06:14:27;102622.31;;;7.53;87.10
54948;BME280;41113;41.882;12.530;2023-02-17T06:16:52;102624.19;;;7.51;87.32
54948;BME280;41113;41.882;12.530;2023-02-17T06:19:19;102624.97;;;7.53;87.26
54948;BME280;41113;41.882;12.530;2023-02-17T06:21:45;102630.19;;;7.56;86.76
54948;BME280;41113;41.882;12.530;2023-02-17T06:24:10;102628.00;;;7.64;86.38
54948;BME280;41113;41.882;12.530;2023-02-17T06:26:36;102629.59;;;7.68;86.31
54948;BME280;41113;41.882;12.530;2023-02-17T06:29:01;102632.22;;;7.70;86.03
54948;BME280;41113;41.882;12.530;2023-02-17T06:31:26;102632.94;;;7.73;86.05
54948;BME280;41113;41.882;12.530;2023-02-17T06:33:52;102638.94;;;7.78;85.72
54948;BME280;41113;41.882;12.530;2023-02-17T06:36:17;102634.53;;;7.77;85.78
54948;BME280;41113;41.882;12.530;2023-02-17T06:38:42;102635.28;;;7.81;85.54
54948;BME280;41113;41.882;12.530;2023-02-17T06:41:08;102636.94;;;7.84;85.39
54948;BME280;41113;41.882;12.530;2023-02-17T06:43:33;102635.28;;;7.81;85.37
54948;BME280;41113;41.882;12.530;2023-02-17T06:45:59;102640.97;;;7.73;85.88
54948;BME280;41113;41.882;12.530;2023-02-17T06:48:24;102633.22;;;7.67;86.11
54948;BME280;41113;41.882;12.530;2023-02-17T06:50:50;102644.66;;;7.71;86.21
54948;BME280;41113;41.882;12.530;2023-02-17T06:53:15;102645.28;;;7.76;85.80
54948;BME280;41113;41.882;12.530;2023-02-17T06:55:43;102647.66;;;7.84;85.46
54948;BME280;41113;41.882;12.530;2023-02-17T06:58:08;102654.94;;;7.99;85.05
54948;BME280;41113;41.882;12.530;2023-02-17T07:00:33;102664.94;;;8.14;84.26
54948;BME280;41113;41.882;12.530;2023-02-17T07:02:59;102661.47;;;8.31;83.71
54948;BME280;41113;41.882;12.530;2023-02-17T07:05:24;102663.94;;;8.35;82.80
54948;BME280;41113;41.882;12.530;2023-02-17T07:07:50;102660.81;;;8.45;81.95
54948;BME280;41113;41.882;12.530;2023-02-17T07:10:17;102661.91;;;8.40;81.30
54948;BME280;41113;41.882;12.530;2023-02-17T07:12:43;102660.03;;;8.42;81.44
54948;BME280;41113;41.882;12.530;2023-02-17T07:15:08;102664.34;;;8.26;81.55
54948;BME280;41113;41.882;12.530;2023-02-17T07:17:34;102675.22;;;8.23;81.21
54948;BME280;41113;41.882;12.530;2023-02-17T07:19:59;102674.28;;;8.24;81.23
54948;BME280;41113;41.882;12.530;2023-02-17T07:22:24;102674.78;;;8.32;80.71
54948;BME280;41113;41.882;12.530;2023-02-17T07:24:51;102675.53;;;8.36;80.50
54948;BME280;41113;41.882;12.530;2023-02-17T07:27:16;102677.19;;;8.38;80.01
54948;BME280;41113;41.882;12.530;2023-02-17T07:29:42;102683.31;;;8.40;78.84
54948;BME280;41113;41.882;12.530;2023-02-17T07:32:07;102685.13;;;8.40;78.97
54948;BME280;41113;41.882;12.530;2023-02-17T07:34:32;102686.69;;;8.46;78.73
54948;BME280;41113;41.882;12.530;2023-02-17T07:36:58;102689.56;;;8.60;79.01
54948;BME280;41113;41.882;12.530;2023-02-17T07:39:23;102691.34;;;8.78;77.90
54948;BME280;41113;41.882;12.530;2023-02-17T07:41:49;102690.66;;;8.92;78.17
54948;BME280;41113;41.882;12.530;2023-02-17T07:44:14;102690.66;;;8.73;76.35
54948;BME280;41113;41.882;12.530;2023-02-17T07:46:39;102692.13;;;8.80;77.20
54948;BME280;41113;41.882;12.530;2023-02-17T07:49:05;102701.91;;;8.98;76.92
54948;BME280;41113;41.882;12.530;2023-02-17T07:51:30;102699.09;;;9.01;75.81
54948;BME280;41113;41.882;12.530;2023-02-17T07:53:56;102709.47;;;8.90;75.22
54948;BME280;41113;41.882;12.530;2023-02-17T07:56:22;102708.84;;;9.02;75.83
54948;BME280;41113;41.882;12.530;2023-02-17T07:58:47;102705.25;;;9.21;76.01
54948;BME280;41113;41.882;12.530;2023-02-17T08:01:21;102709.00;;;8.99;74.07
54948;BME280;41113;41.882;12.530;2023-02-17T08:03:47;102697.34;;;8.83;74.10
54948;BME280;41113;41.882;12.530;2023-02-17T08:06:15;102708.69;;;8.88;74.68
54948;BME280;41113;41.882;12.530;2023-02-17T08:08:41;102708.53;;;9.09;74.11
54948;BME280;41113;41.882;12.530;2023-02-17T08:11:25;102704.47;;;9.19;72.60
54948;BME280;41113;41.882;12.530;2023-02-17T08:14:10;102702.94;;;8.96;72.90
54948;BME280;41113;41.882;12.530;2023-02-17T08:16:35;102706.72;;;9.09;73.82
54948;BME280;41113;41.882;12.530;2023-02-17T08:19:01;102716.91;;;9.37;73.47
54948;BME280;41113;41.882;12.530;2023-02-17T08:21:26;102711.31;;;9.42;71.69
54948;BME280;41113;41.882;12.530;2023-02-17T08:23:53;102711.97;;;9.29;71.53
54948;BME280;41113;41.882;12.530;2023-02-17T08:26:18;102711.41;;;9.23;71.26
54948;BME280;41113;41.882;12.530;2023-02-17T08:28:44;102708.19;;;9.33;72.04
54948;BME280;41113;41.882;12.530;2023-02-17T08:33:44;102706.81;;;9.77;72.15
54948;BME280;41113;41.882;12.530;2023-02-17T08:36:10;102714.47;;;9.84;71.35
54948;BME280;41113;41.882;12.530;2023-02-17T08:38:36;102713.63;;;9.99;71.51
54948;BME280;41113;41.882;12.530;2023-02-17T08:41:01;102703.47;;;10.22;71.05
54948;BME280;41113;41.882;12.530;2023-02-17T08:43:35;102710.59;;;10.39;70.72
54948;BME280;41113;41.882;12.530;2023-02-17T08:46:00;102713.63;;;10.33;67.56
54948;BME280;41113;41.882;12.530;2023-02-17T08:48:26;102717.13;;;10.17;68.84
54948;BME280;41113;41.882;12.530;2023-02-17T08:50:51;102719.38;;;10.09;69.15
54948;BME280;41113;41.882;12.530;2023-02-17T08:53:16;102717.00;;;10.20;67.56
54948;BME280;41113;41.882;12.530;2023-02-17T08:55:42;102721.34;;;10.39;69.30
54948;BME280;41113;41.882;12.530;2023-02-17T08:58:07;102716.25;;;10.50;69.26
54948;BME280;41113;41.882;12.530;2023-02-17T09:00:33;102715.63;;;10.60;69.12
54948;BME280;41113;41.882;12.530;2023-02-17T09:02:58;102722.56;;;10.65;68.20
54948;BME280;41113;41.882;12.530;2023-02-17T09:05:23;102725.53;;;10.60;67.74
54948;BME280;41113;41.882;12.530;2023-02-17T09:07:49;102722.75;;;10.77;68.54
54948;BME280;41113;41.882;12.530;2023-02-17T09:10:14;102725.31;;;10.95;67.65
54948;BME280;41113;41.882;12.530;2023-02-17T09:12:39;102716.13;;;10.99;67.44
54948;BME280;41113;41.882;12.530;2023-02-17T09:15:06;102722.72;;;11.09;67.42
54948;BME280;41113;41.882;12.530;2023-02-17T09:17:31;102723.13;;;11.01;67.21
54948;BME280;41113;41.882;12.530;2023-02-17T09:19:57;102721.03;;;10.76;67.84
54948;BME280;41113;41.882;12.530;2023-02-17T09:22:22;102717.44;;;10.91;68.15
54948;BME280;41113;41.882;12.530;2023-02-17T09:24:47;102720.25;;;11.04;68.11
54948;BME280;41113;41.882;12.530;2023-02-17T09:27:13;102723.94;;;10.72;65.95
54948;BME280;41113;41.882;12.530;2023-02-17T09:29:38;102723.94;;;10.87;67.56
54948;BME280;41113;41.882;12.530;2023-02-17T09:32:07;102716.78;;;11.18;67.46
54948;BME280;41113;41.882;12.530;2023-02-17T09:34:35;102719.56;;;11.16;66.11
54948;BME280;41113;41.882;12.530;2023-02-17T09:37:01;102710.91;;;11.11;65.89
54948;BME280;41113;41.882;12.530;2023-02-17T09:39:27;102713.25;;;11.32;65.33
54948;BME280;41113;41.882;12.530;2023-02-17T09:41:52;102715.47;;;11.25;63.66
54948;BME280;41113;41.882;12.530;2023-02-17T09:49:25;102719.47;;;11.48;64.59
54948;BME280;41113;41.882;12.530;2023-02-17T09:52:16;102719.41;;;11.64;62.65
54948;BME280;41113;41.882;12.530;2023-02-17T09:57:16;102716.69;;;11.94;63.70
54948;BME280;41113;41.882;12.530;2023-02-17T10:02:38;102705.25;;;11.90;62.05
54948;BME280;41113;41.882;12.530;2023-02-17T10:05:08;102709.28;;;12.11;62.37
54948;BME280;41113;41.882;12.530;2023-02-17T10:07:41;102701.09;;;12.41;60.97
54948;BME280;41113;41.882;12.530;2023-02-17T10:10:10;102698.34;;;12.56;59.89
54948;BME280;41113;41.882;12.530;2023-02-17T10:12:55;102700.28;;;12.54;57.65
54948;BME280;41113;41.882;12.530;2023-02-17T10:15:25;102698.44;;;12.54;60.33
54948;BME280;41113;41.882;12.530;2023-02-17T10:23:03;102694.78;;;12.55;58.81
54948;BME280;41113;41.882;12.530;2023-02-17T10:31:06;102698.88;;;12.34;59.25
54948;BME280;41113;41.882;12.530;2023-02-17T10:34:22;102694.06;;;12.25;59.22
54948;BME280;41113;41.882;12.530;2023-02-17T10:39:46;102697.22;;;12.31;58.19
54948;BME280;41113;41.882;12.530;2023-02-17T10:44:47;102702.13;;;12.53;59.08
54948;BME280;41113;41.882;12.530;2023-02-17T10:47:13;102697.88;;;12.49;59.07
54948;BME280;41113;41.882;12.530;2023-02-17T10:49:44;102687.50;;;12.43;58.61
54948;BME280;41113;41.882;12.530;2023-02-17T10:52:50;102687.16;;;12.62;58.73
54948;BME280;41113;41.882;12.530;2023-02-17T10:55:18;102688.03;;;12.62;57.71
54948;BME280;41113;41.882;12.530;2023-02-17T10:57:47;102686.16;;;12.50;58.61
54948;BME280;41113;41.882;12.530;2023-02-17T11:00:15;102684.16;;;12.39;59.07
54948;BME280;41113;41.882;12.530;2023-02-17T11:02:42;102678.56;;;12.42;58.37
54948;BME280;41113;41.882;12.530;2023-02-17T11:05:37;102670.59;;;12.41;58.03
54948;BME280;41113;41.882;12.530;2023-02-17T11:08:23;102668.09;;;12.38;59.43
54948;BME280;41113;41.882;12.530;2023-02-17T11:11:20;102673.47;;;12.38;58.48
54948;BME280;41113;41.882;12.530;2023-02-17T11:16:24;102662.00;;;12.49;58.39
54948;BME280;41113;41.882;12.530;2023-02-17T11:18:51;102664.59;;;12.50;59.90
54948;BME280;41113;41.882;12.530;2023-02-17T11:21:17;102655.28;;;12.41;60.03
54948;BME280;41113;41.882;12.530;2023-02-17T11:23:48;102647.00;;;12.44;59.58
54948;BME280;41113;41.882;12.530;2023-02-17T11:26:20;102634.53;;;12.56;60.38
54948;BME280;41113;41.882;12.530;2023-02-17T11:28:47;102633.91;;;12.65;60.00
54948;BME280;41113;41.882;12.530;2023-02-17T11:31:25;102628.06;;;12.59;59.65
54948;BME280;41113;41.882;12.530;2023-02-17T11:33:51;102622.97;;;12.54;60.21
54948;BME280;41113;41.882;12.530;2023-02-17T11:36:26;102623.28;;;12.50;60.15
54948;BME280;41113;41.882;12.530;2023-02-17T11:38:51;102623.53;;;12.59;60.76
54948;BME280;41113;41.882;12.530;2023-02-17T11:41:17;102623.88;;;12.67;60.36
54948;BME280;41113;41.882;12.530;2023-02-17T11:43:54;102613.91;;;12.69;59.30
54948;BME280;41113;41.882;12.530;2023-02-17T11:46:34;102608.28;;;12.72;60.08
54948;BME280;41113;41.882;12.530;2023-02-17T11:51:59;102602.94;;;12.98;59.31
54948;BME280;41113;41.882;12.530;2023-02-17T12:00:19;102576.03;;;13.23;58.13
54948;BME280;41113;41.882;12.530;2023-02-17T12:16:38;102558.41;;;13.05;58.81
54948;BME280;41113;41.882;12.530;2023-02-17T12:19:43;102557.38;;;13.20;57.32
54948;BME280;41113;41.882;12.530;2023-02-17T12:24:57;102546.03;;;13.41;58.73
54948;BME280;41113;41.882;12.530;2023-02-17T12:37:46;102552.28;;;13.54;58.12
54948;BME280;41113;41.882;12.530;2023-02-17T12:40:37;102552.50;;;13.51;56.96
54948;BME280;41113;41.882;12.530;2023-02-17T12:43:48;102546.13;;;13.52;57.63
54948;BME280;41113;41.882;12.530;2023-02-17T12:46:11;102542.97;;;13.58;57.76
54948;BME280;41113;41.882;12.530;2023-02-17T12:48:55;102538.25;;;13.49;56.71
54948;BME280;41113;41.882;12.530;2023-02-17T12:51:31;102539.13;;;13.49;58.16
54948;BME280;41113;41.882;12.530;2023-02-17T13:03:12;102527.25;;;13.26;55.37
54948;BME280;41113;41.882;12.530;2023-02-17T13:05:49;102526.06;;;13.18;55.99
54948;BME280;41113;41.882;12.530;2023-02-17T13:08:22;102529.63;;;13.18;57.47
54948;BME280;41113;41.882;12.530;2023-02-17T13:11:00;102531.53;;;13.16;57.12
54948;BME280;41113;41.882;12.530;2023-02-17T13:13:31;102530.25;;;13.09;57.25
54948;BME280;41113;41.882;12.530;2023-02-17T13:16:05;102528.75;;;13.05;55.44
54948;BME280;41113;41.882;12.530;2023-02-17T13:18:34;102525.28;;;13.03;55.87
54948;BME280;41113;41.882;12.530;2023-02-17T13:24:11;102518.34;;;12.99;56.46
54948;BME280;41113;41.882;12.530;2023-02-17T13:26:38;102521.63;;;13.04;57.30
54948;BME280;41113;41.882;12.530;2023-02-17T13:31:53;102519.91;;;13.03;57.70
54948;BME280;41113;41.882;12.530;2023-02-17T13:34:38;102516.44;;;13.01;57.70
54948;BME280;41113;41.882;12.530;2023-02-17T13:39:41;102511.03;;;12.88;58.23
54948;BME280;41113;41.882;12.530;2023-02-17T13:44:58;102510.91;;;12.90;58.56
54948;BME280;41113;41.882;12.530;2023-02-17T13:47:35;102511.78;;;12.90;57.61
54948;BME280;41113;41.882;12.530;2023-02-17T13:50:02;102509.72;;;12.94;58.31
54948;BME280;41113;41.882;12.530;2023-02-17T13:52:29;102512.00;;;13.00;58.23
54948;BME280;41113;41.882;12.530;2023-02-17T13:55:03;102502.00;;;13.02;58.29
54948;BME280;41113;41.882;12.530;2023-02-17T13:57:32;102499.19;;;13.03;58.32
54948;BME280;41113;41.882;12.530;2023-02-17T14:00:27;102504.69;;;13.02;58.18
54948;BME280;41113;41.882;12.530;2023-02-17T14:02:56;102498.31;;;13.03;59.09
54948;BME280;41113;41.882;12.530;2023-02-17T14:07:48;102503.06;;;13.12;59.20
54948;BME280;41113;41.882;12.530;2023-02-17T14:10:22;102504.38;;;13.19;59.00
54948;BME280;41113;41.882;12.530;2023-02-17T14:12:48;102503.28;;;13.22;59.29
54948;BME280;41113;41.882;12.530;2023-02-17T14:15:20;102505.88;;;13.23;59.32
54948;BME280;41113;41.882;12.530;2023-02-17T14:17:45;102501.25;;;13.25;59.54
54948;BME280;41113;41.882;12.530;2023-02-17T14:20:28;102502.00;;;13.27;59.20
54948;BME280;41113;41.882;12.530;2023-02-17T14:23:03;102494.88;;;13.26;59.46
54948;BME280;41113;41.882;12.530;2023-02-17T14:25:30;102497.03;;;13.34;59.46
54948;BME280;41113;41.882;12.530;2023-02-17T14:27:56;102500.28;;;13.39;59.51
54948;BME280;41113;41.882;12.530;2023-02-17T14:30:33;102508.25;;;13.41;59.79
54948;BME280;41113;41.882;12.530;2023-02-17T14:35:54;102493.78;;;13.42;60.11
54948;BME280;41113;41.882;12.530;2023-02-17T14:38:39;102494.00;;;13.38;59.94
54948;BME280;41113;41.882;12.530;2023-02-17T14:41:06;102499.19;;;13.42;60.27
54948;BME280;41113;41.882;12.530;2023-02-17T14:43:33;102501.13;;;13.39;60.53
54948;BME280;41113;41.882;12.530;2023-02-17T14:45:58;102497.69;;;13.37;60.63
54948;BME280;41113;41.882;12.530;2023-02-17T14:48:24;102498.53;;;13.38;60.66
54948;BME280;41113;41.882;12.530;2023-02-17T14:50:50;102496.72;;;13.38;60.73
54948;BME280;41113;41.882;12.530;2023-02-17T14:55:53;102495.72;;;13.39;60.83